Wetterdaten: Montag, 20.07.2015
Datum Zeit Temp. A. Feuchte A. Luftdruck Regen Wind Richtung Richtung Sonnenschein ET UV Solar Taupunkt Windchill Windben Empfang
20.07.2015 00:00 21,4 C 65 % 1010,1 hPa 0,0 l/m 0,0 km/h (0 Bft) O-NO 67 0 min 0,000 mm 0,0 UV-I 0 W/m 14,5 C 21,4 C 0,0 km/h (0 Bft) 0,00 %
20.07.2015 00:05 21,3 C 66 % 1010,0 hPa 0,0 l/m 0,0 km/h (0 Bft) NO 36 0 min 0,000 mm 0,0 UV-I 0 W/m 14,7 C 21,3 C 0,0 km/h (0 Bft) 0,00 %
20.07.2015 00:10 21,2 C 66 % 1010,1 hPa 0,0 l/m 0,0 km/h (0 Bft) NO 54 0 min 0,000 mm 0,0 UV-I 0 W/m 14,6 C 21,2 C 0,0 km/h (0 Bft) 0,00 %
20.07.2015 00:15 21,1 C 67 % 1010,3 hPa 0,0 l/m 2,9 km/h (1 Bft) W-SW 254 0 min 0,000 mm 0,0 UV-I 0 W/m 14,7 C 21,1 C 7,9 km/h (2 Bft) 0,00 %
20.07.2015 00:20 21,1 C 67 % 1010,3 hPa 0,0 l/m 0,0 km/h (0 Bft) NO 42 0 min 0,000 mm 0,0 UV-I 0 W/m 14,7 C 21,1 C 0,0 km/h (0 Bft) 0,00 %
20.07.2015 00:25 21,1 C 67 % 1010,1 hPa 0,0 l/m 0,0 km/h (0 Bft) NO 51 0 min 0,000 mm 0,0 UV-I 0 W/m 14,7 C 21,1 C 0,0 km/h (0 Bft) 0,00 %
20.07.2015 00:30 21,1 C 67 % 1010,3 hPa 0,0 l/m 0,0 km/h (0 Bft) N-NW 342 0 min 0,000 mm 0,0 UV-I 0 W/m 14,7 C 21,1 C 0,0 km/h (0 Bft) 0,00 %
20.07.2015 00:35 21,1 C 67 % 1010,6 hPa 0,0 l/m 0,0 km/h (0 Bft) NO 55 0 min 0,000 mm 0,0 UV-I 0 W/m 14,7 C 21,1 C 0,0 km/h (0 Bft) 0,00 %
20.07.2015 00:40 21,0 C 68 % 1010,5 hPa 0,0 l/m 0,0 km/h (0 Bft) N-NO 33 0 min 0,000 mm 0,0 UV-I 0 W/m 14,9 C 21,0 C 0,0 km/h (0 Bft) 0,00 %
20.07.2015 00:45 21,0 C 68 % 1010,8 hPa 0,0 l/m 1,4 km/h (1 Bft) N-NW 327 0 min 0,000 mm 0,0 UV-I 0 W/m 14,9 C 21,0 C 4,0 km/h (1 Bft) 0,00 %
20.07.2015 00:50 20,9 C 69 % 1010,9 hPa 0,0 l/m 0,0 km/h (0 Bft) N-NO 27 0 min 0,000 mm 0,0 UV-I 0 W/m 15,0 C 20,9 C 0,0 km/h (0 Bft) 0,00 %
20.07.2015 00:55 20,9 C 70 % 1011,4 hPa 0,0 l/m 0,0 km/h (0 Bft) N 355 0 min 0,000 mm 0,0 UV-I 0 W/m 15,2 C 20,9 C 0,0 km/h (0 Bft) 0,00 %
20.07.2015 01:00 20,7 C 71 % 1011,9 hPa 0,0 l/m 3,2 km/h (1 Bft) W 281 0 min 0,000 mm 0,0 UV-I 0 W/m 15,2 C 20,7 C 7,9 km/h (2 Bft) 0,00 %
20.07.2015 01:05 20,5 C 72 % 1012,0 hPa 0,0 l/m 0,0 km/h (0 Bft) O-NO 69 0 min 0,000 mm 0,0 UV-I 0 W/m 15,3 C 20,5 C 0,0 km/h (0 Bft) 0,00 %
20.07.2015 01:10 20,5 C 72 % 1012,5 hPa 0,0 l/m 5,8 km/h (2 Bft) W-SW 258 0 min 0,000 mm 0,0 UV-I 0 W/m 15,3 C 20,5 C 7,9 km/h (2 Bft) 0,00 %
20.07.2015 01:15 20,5 C 72 % 1012,7 hPa 0,0 l/m 4,0 km/h (1 Bft) N-NW 338 0 min 0,000 mm 0,0 UV-I 0 W/m 15,3 C 20,5 C 7,9 km/h (2 Bft) 0,00 %
20.07.2015 01:20 20,4 C 73 % 1012,3 hPa 0,0 l/m 1,4 km/h (1 Bft) O-SO 108 0 min 0,000 mm 0,0 UV-I 0 W/m 15,4 C 20,4 C 4,0 km/h (1 Bft) 0,00 %
20.07.2015 01:25 20,3 C 78 % 1012,5 hPa 0,0 l/m 0,4 km/h (0 Bft) N-NO 12 0 min 0,000 mm 0,0 UV-I 0 W/m 16,3 C 20,3 C 4,0 km/h (1 Bft) 0,00 %
20.07.2015 01:30 20,0 C 83 % 1012,7 hPa 1,2 l/m 0,0 km/h (0 Bft) NO 38 0 min 0,000 mm 0,0 UV-I 0 W/m 17,0 C 20,0 C 0,0 km/h (0 Bft) 0,00 %
20.07.2015 01:35 19,7 C 86 % 1012,7 hPa 0,9 l/m 0,0 km/h (0 Bft) O-NO 57 0 min 0,000 mm 0,0 UV-I 0 W/m 17,3 C 19,7 C 0,0 km/h (0 Bft) 0,00 %
20.07.2015 01:40 19,2 C 89 % 1012,4 hPa 0,0 l/m 0,4 km/h (0 Bft) N 353 0 min 0,000 mm 0,0 UV-I 0 W/m 17,3 C 19,2 C 4,0 km/h (1 Bft) 0,00 %
20.07.2015 01:45 18,7 C 91 % 1012,4 hPa 0,3 l/m 0,0 km/h (0 Bft) NO 51 0 min 0,000 mm 0,0 UV-I 0 W/m 17,2 C 18,7 C 0,0 km/h (0 Bft) 0,00 %
20.07.2015 01:50 18,4 C 92 % 1012,7 hPa 0,0 l/m 0,0 km/h (0 Bft) N-NW 344 0 min 0,000 mm 0,0 UV-I 0 W/m 17,1 C 18,4 C 0,0 km/h (0 Bft) 0,00 %
20.07.2015 01:55 18,4 C 93 % 1012,6 hPa 0,0 l/m 0,0 km/h (0 Bft) N-NW 341 0 min 0,000 mm 0,0 UV-I 0 W/m 17,2 C 18,4 C 0,0 km/h (0 Bft) 0,00 %
20.07.2015 02:00 18,3 C 93 % 1013,0 hPa 0,3 l/m 0,0 km/h (0 Bft) NO 39 0 min 0,000 mm 0,0 UV-I 0 W/m 17,1 C 18,3 C 0,0 km/h (0 Bft) 0,00 %
20.07.2015 02:05 18,2 C 94 % 1012,7 hPa 0,0 l/m 0,0 km/h (0 Bft) NO 38 0 min 0,000 mm 0,0 UV-I 0 W/m 17,2 C 18,2 C 0,0 km/h (0 Bft) 0,00 %
20.07.2015 02:10 18,2 C 94 % 1012,7 hPa 0,0 l/m 0,0 km/h (0 Bft) NO 44 0 min 0,000 mm 0,0 UV-I 0 W/m 17,2 C 18,2 C 0,0 km/h (0 Bft) 0,00 %
20.07.2015 02:15 18,2 C 94 % 1012,6 hPa 0,0 l/m 0,0 km/h (0 Bft) O-NO 68 0 min 0,000 mm 0,0 UV-I 0 W/m 17,2 C 18,2 C 0,0 km/h (0 Bft) 0,00 %
20.07.2015 02:20 18,2 C 94 % 1012,6 hPa 0,0 l/m 0,0 km/h (0 Bft) NO 38 0 min 0,000 mm 0,0 UV-I 0 W/m 17,2 C 18,2 C 0,0 km/h (0 Bft) 0,00 %
20.07.2015 02:25 18,1 C 94 % 1012,6 hPa 0,0 l/m 0,0 km/h (0 Bft) NO 47 0 min 0,000 mm 0,0 UV-I 0 W/m 17,1 C 18,1 C 0,0 km/h (0 Bft) 0,00 %
20.07.2015 02:30 18,1 C 94 % 1012,6 hPa 0,0 l/m 0,0 km/h (0 Bft) NO 40 0 min 0,000 mm 0,0 UV-I 0 W/m 17,1 C 18,1 C 0,0 km/h (0 Bft) 0,00 %
20.07.2015 02:35 18,1 C 94 % 1012,7 hPa 0,0 l/m 0,0 km/h (0 Bft) NO 38 0 min 0,000 mm 0,0 UV-I 0 W/m 17,1 C 18,1 C 0,0 km/h (0 Bft) 0,00 %
20.07.2015 02:40 18,2 C 94 % 1012,8 hPa 0,0 l/m 0,0 km/h (0 Bft) NO 45 0 min 0,000 mm 0,0 UV-I 0 W/m 17,2 C 18,2 C 0,0 km/h (0 Bft) 0,00 %
20.07.2015 02:45 18,2 C 94 % 1012,8 hPa 0,0 l/m 0,0 km/h (0 Bft) N-NO 30 0 min 0,000 mm 0,0 UV-I 0 W/m 17,2 C 18,2 C 0,0 km/h (0 Bft) 0,00 %
20.07.2015 02:50 18,2 C 94 % 1012,6 hPa 0,0 l/m 0,0 km/h (0 Bft) NO 49 0 min 0,000 mm 0,0 UV-I 0 W/m 17,2 C 18,2 C 0,0 km/h (0 Bft) 0,00 %
20.07.2015 02:55 18,3 C 95 % 1012,9 hPa 0,0 l/m 0,0 km/h (0 Bft) N-NO 20 0 min 0,000 mm 0,0 UV-I 0 W/m 17,5 C 18,3 C 0,0 km/h (0 Bft) 0,00 %
20.07.2015 03:00 18,3 C 95 % 1012,4 hPa 0,0 l/m 0,0 km/h (0 Bft) NO 40 0 min 0,000 mm 0,0 UV-I 0 W/m 17,5 C 18,3 C 0,0 km/h (0 Bft) 0,00 %
20.07.2015 03:05 18,2 C 95 % 1012,6 hPa 0,0 l/m 0,0 km/h (0 Bft) NO 36 0 min 0,000 mm 0,0 UV-I 0 W/m 17,4 C 18,2 C 0,0 km/h (0 Bft) 0,00 %
20.07.2015 03:10 18,2 C 95 % 1012,9 hPa 0,0 l/m 0,0 km/h (0 Bft) N 355 0 min 0,000 mm 0,0 UV-I 0 W/m 17,4 C 18,2 C 0,0 km/h (0 Bft) 0,00 %
20.07.2015 03:15 18,2 C 95 % 1012,7 hPa 0,0 l/m 0,0 km/h (0 Bft) NO 39 0 min 0,000 mm 0,0 UV-I 0 W/m 17,4 C 18,2 C 0,0 km/h (0 Bft) 0,00 %
20.07.2015 03:20 18,2 C 95 % 1012,7 hPa 0,0 l/m 0,0 km/h (0 Bft) NO 49 0 min 0,000 mm 0,0 UV-I 0 W/m 17,4 C 18,2 C 0,0 km/h (0 Bft) 0,00 %
20.07.2015 03:25 18,1 C 95 % 1012,5 hPa 0,0 l/m 0,0 km/h (0 Bft) NO 38 0 min 0,000 mm 0,0 UV-I 0 W/m 17,3 C 18,1 C 0,0 km/h (0 Bft) 0,00 %
20.07.2015 03:30 18,0 C 95 % 1012,5 hPa 0,0 l/m 0,0 km/h (0 Bft) NO 37 0 min 0,000 mm 0,0 UV-I 0 W/m 17,2 C 18,0 C 0,0 km/h (0 Bft) 0,00 %
20.07.2015 03:35 18,0 C 95 % 1012,6 hPa 0,0 l/m 0,0 km/h (0 Bft) NO 42 0 min 0,000 mm 0,0 UV-I 0 W/m 17,2 C 18,0 C 0,0 km/h (0 Bft) 0,00 %
20.07.2015 03:40 17,9 C 96 % 1012,7 hPa 0,0 l/m 0,0 km/h (0 Bft) NO 41 0 min 0,000 mm 0,0 UV-I 0 W/m 17,3 C 17,9 C 0,0 km/h (0 Bft) 0,00 %
20.07.2015 03:45 17,9 C 96 % 1012,6 hPa 0,0 l/m 0,0 km/h (0 Bft) NO 44 0 min 0,000 mm 0,0 UV-I 0 W/m 17,3 C 17,9 C 0,0 km/h (0 Bft) 0,00 %
20.07.2015 03:50 17,9 C 96 % 1012,6 hPa 0,0 l/m 0,0 km/h (0 Bft) N-NO 25 0 min 0,000 mm 0,0 UV-I 0 W/m 17,3 C 17,9 C 0,0 km/h (0 Bft) 0,00 %
20.07.2015 03:55 17,9 C 96 % 1012,5 hPa 0,0 l/m 0,0 km/h (0 Bft) NO 45 0 min 0,000 mm 0,0 UV-I 0 W/m 17,3 C 17,9 C 0,0 km/h (0 Bft) 0,00 %
20.07.2015 04:00 17,9 C 97 % 1012,7 hPa 0,0 l/m 0,0 km/h (0 Bft) NO 39 0 min 0,000 mm 0,0 UV-I 0 W/m 17,4 C 17,9 C 0,0 km/h (0 Bft) 0,00 %
20.07.2015 04:05 17,9 C 97 % 1012,9 hPa 0,0 l/m 0,0 km/h (0 Bft) N 355 0 min 0,000 mm 0,0 UV-I 0 W/m 17,4 C 17,9 C 0,0 km/h (0 Bft) 0,00 %
20.07.2015 04:10 17,9 C 96 % 1012,8 hPa 0,0 l/m 0,0 km/h (0 Bft) N 355 0 min 0,000 mm 0,0 UV-I 0 W/m 17,3 C 17,9 C 0,0 km/h (0 Bft) 0,00 %
20.07.2015 04:15 17,9 C 96 % 1012,9 hPa 0,0 l/m 0,0 km/h (0 Bft) N 355 0 min 0,000 mm 0,0 UV-I 0 W/m 17,3 C 17,9 C 0,0 km/h (0 Bft) 0,00 %
20.07.2015 04:20 17,9 C 96 % 1012,7 hPa 0,0 l/m 0,0 km/h (0 Bft) N 355 0 min 0,000 mm 0,0 UV-I 0 W/m 17,3 C 17,9 C 0,0 km/h (0 Bft) 0,00 %
20.07.2015 04:25 17,9 C 96 % 1012,5 hPa 0,3 l/m 0,0 km/h (0 Bft) NW 319 0 min 0,000 mm 0,0 UV-I 0 W/m 17,3 C 17,9 C 0,0 km/h (0 Bft) 0,00 %
20.07.2015 04:30 18,0 C 96 % 1012,7 hPa 0,0 l/m 0,0 km/h (0 Bft) NO 37 0 min 0,000 mm 0,0 UV-I 0 W/m 17,4 C 18,0 C 0,0 km/h (0 Bft) 0,00 %
20.07.2015 04:35 18,0 C 96 % 1012,9 hPa 0,0 l/m 0,0 km/h (0 Bft) NO 42 0 min 0,000 mm 0,0 UV-I 0 W/m 17,4 C 18,0 C 0,0 km/h (0 Bft) 0,00 %
20.07.2015 04:40 18,0 C 96 % 1012,8 hPa 0,0 l/m 0,0 km/h (0 Bft) NO 46 0 min 0,000 mm 0,0 UV-I 0 W/m 17,4 C 18,0 C 0,0 km/h (0 Bft) 0,00 %
20.07.2015 04:45 18,0 C 96 % 1012,8 hPa 0,0 l/m 0,0 km/h (0 Bft) NO 47 0 min 0,000 mm 0,0 UV-I 0 W/m 17,4 C 18,0 C 0,0 km/h (0 Bft) 0,00 %
20.07.2015 04:50 18,0 C 96 % 1012,6 hPa 0,0 l/m 0,0 km/h (0 Bft) N-NO 32 0 min 0,000 mm 0,0 UV-I 0 W/m 17,4 C 18,0 C 0,0 km/h (0 Bft) 0,00 %
20.07.2015 04:55 18,0 C 96 % 1012,6 hPa 0,0 l/m 0,0 km/h (0 Bft) N 349 0 min 0,000 mm 0,0 UV-I 0 W/m 17,4 C 18,0 C 0,0 km/h (0 Bft) 0,00 %
20.07.2015 05:00 18,0 C 96 % 1012,8 hPa 0,0 l/m 1,4 km/h (1 Bft) W 271 0 min 0,000 mm 0,0 UV-I 0 W/m 17,4 C 18,0 C 4,0 km/h (1 Bft) 0,00 %
20.07.2015 05:05 18,0 C 96 % 1012,8 hPa 0,0 l/m 0,0 km/h (0 Bft) N-NO 15 0 min 0,000 mm 0,0 UV-I 0 W/m 17,4 C 18,0 C 0,0 km/h (0 Bft) 0,00 %
20.07.2015 05:10 18,0 C 96 % 1012,8 hPa 0,0 l/m 0,0 km/h (0 Bft) N 352 0 min 0,000 mm 0,0 UV-I 0 W/m 17,4 C 18,0 C 0,0 km/h (0 Bft) 0,00 %
20.07.2015 05:15 18,0 C 96 % 1012,7 hPa 0,0 l/m 0,0 km/h (0 Bft) NO 41 0 min 0,000 mm 0,0 UV-I 0 W/m 17,4 C 18,0 C 0,0 km/h (0 Bft) 0,00 %
20.07.2015 05:20 18,0 C 96 % 1012,8 hPa 0,0 l/m 0,4 km/h (0 Bft) W-SW 237 0 min 0,000 mm 0,0 UV-I 0 W/m 17,4 C 18,0 C 4,0 km/h (1 Bft) 0,00 %
20.07.2015 05:25 18,0 C 96 % 1012,8 hPa 0,0 l/m 0,0 km/h (0 Bft) N 353 0 min 0,000 mm 0,0 UV-I 0 W/m 17,4 C 18,0 C 0,0 km/h (0 Bft) 0,00 %
20.07.2015 05:30 17,9 C 97 % 1012,7 hPa 0,0 l/m 0,4 km/h (0 Bft) W-SW 251 0 min 0,000 mm 0,0 UV-I 0 W/m 17,4 C 17,9 C 4,0 km/h (1 Bft) 0,00 %
20.07.2015 05:35 17,9 C 97 % 1012,9 hPa 0,0 l/m 0,0 km/h (0 Bft) O 94 0 min 0,000 mm 0,0 UV-I 0 W/m 17,4 C 17,9 C 0,0 km/h (0 Bft) 0,00 %
20.07.2015 05:40 17,9 C 96 % 1012,7 hPa 0,0 l/m 0,4 km/h (0 Bft) N 353 0 min 0,000 mm 0,0 UV-I 0 W/m 17,3 C 17,9 C 4,0 km/h (1 Bft) 0,00 %
20.07.2015 05:45 17,9 C 96 % 1012,8 hPa 0,0 l/m 0,0 km/h (0 Bft) N 9 0 min 0,000 mm 0,0 UV-I 2 W/m 17,3 C 17,9 C 0,0 km/h (0 Bft) 0,00 %
20.07.2015 05:50 17,9 C 96 % 1012,9 hPa 0,0 l/m 0,0 km/h (0 Bft) O-NO 67 0 min 0,000 mm 0,0 UV-I 3 W/m 17,3 C 17,9 C 0,0 km/h (0 Bft) 0,00 %
20.07.2015 05:55 17,9 C 96 % 1012,9 hPa 0,0 l/m 0,0 km/h (0 Bft) O-NO 60 0 min 0,000 mm 0,0 UV-I 1 W/m 17,3 C 17,9 C 0,0 km/h (0 Bft) 0,00 %
20.07.2015 06:00 17,9 C 96 % 1012,8 hPa 0,0 l/m 0,0 km/h (0 Bft) O-NO 64 0 min 0,000 mm 0,0 UV-I 4 W/m 17,3 C 17,9 C 0,0 km/h (0 Bft) 0,00 %
20.07.2015 06:05 18,0 C 96 % 1013,0 hPa 0,0 l/m 0,0 km/h (0 Bft) N-NO 18 0 min 0,000 mm 0,0 UV-I 9 W/m 17,4 C 18,0 C 0,0 km/h (0 Bft) 0,00 %
20.07.2015 06:10 18,0 C 96 % 1013,1 hPa 0,0 l/m 0,7 km/h (0 Bft) NW 324 0 min 0,000 mm 0,0 UV-I 24 W/m 17,4 C 18,0 C 4,0 km/h (1 Bft) 0,00 %
20.07.2015 06:15 18,0 C 95 % 1012,9 hPa 0,0 l/m 0,0 km/h (0 Bft) N-NW 344 0 min 0,000 mm 0,0 UV-I 25 W/m 17,2 C 18,0 C 0,0 km/h (0 Bft) 0,00 %
20.07.2015 06:20 18,1 C 95 % 1013,1 hPa 0,0 l/m 0,4 km/h (0 Bft) N-NW 343 0 min 0,000 mm 0,0 UV-I 21 W/m 17,3 C 18,1 C 4,0 km/h (1 Bft) 0,00 %
20.07.2015 06:25 18,2 C 95 % 1013,0 hPa 0,0 l/m 0,7 km/h (0 Bft) N-NW 346 0 min 0,000 mm 0,0 UV-I 25 W/m 17,4 C 18,2 C 4,0 km/h (1 Bft) 0,00 %
20.07.2015 06:30 18,2 C 95 % 1013,0 hPa 0,0 l/m 0,0 km/h (0 Bft) N-NW 347 0 min 0,000 mm 0,0 UV-I 20 W/m 17,4 C 18,2 C 0,0 km/h (0 Bft) 0,00 %
20.07.2015 06:35 18,2 C 95 % 1013,1 hPa 0,0 l/m 0,4 km/h (0 Bft) W-SW 249 0 min 0,000 mm 0,0 UV-I 10 W/m 17,4 C 18,2 C 4,0 km/h (1 Bft) 0,00 %
20.07.2015 06:40 18,3 C 95 % 1013,3 hPa 0,0 l/m 0,0 km/h (0 Bft) N-NW 336 0 min 0,000 mm 0,0 UV-I 10 W/m 17,5 C 18,3 C 0,0 km/h (0 Bft) 0,00 %
20.07.2015 06:45 18,3 C 94 % 1013,3 hPa 0,0 l/m 0,4 km/h (0 Bft) NW 313 0 min 0,000 mm 0,0 UV-I 9 W/m 17,3 C 18,3 C 4,0 km/h (1 Bft) 0,00 %
20.07.2015 06:50 18,3 C 94 % 1013,2 hPa 0,0 l/m 0,0 km/h (0 Bft) NO 36 0 min 0,000 mm 0,0 UV-I 27 W/m 17,3 C 18,3 C 0,0 km/h (0 Bft) 0,00 %
20.07.2015 06:55 18,3 C 94 % 1013,1 hPa 0,0 l/m 0,4 km/h (0 Bft) N-NW 337 0 min 0,000 mm 0,0 UV-I 69 W/m 17,3 C 18,3 C 4,0 km/h (1 Bft) 0,00 %
20.07.2015 07:00 18,3 C 94 % 1013,2 hPa 0,0 l/m 0,0 km/h (0 Bft) O 83 0 min 0,000 mm 0,0 UV-I 79 W/m 17,3 C 18,3 C 0,0 km/h (0 Bft) 0,00 %
20.07.2015 07:05 18,4 C 94 % 1013,1 hPa 0,0 l/m 0,0 km/h (0 Bft) O-NO 69 0 min 0,000 mm 0,0 UV-I 56 W/m 17,4 C 18,4 C 0,0 km/h (0 Bft) 0,00 %
20.07.2015 07:10 18,5 C 94 % 1013,0 hPa 0,0 l/m 0,0 km/h (0 Bft) NO 49 0 min 0,000 mm 1,0 UV-I 94 W/m 17,5 C 18,5 C 0,0 km/h (0 Bft) 0,00 %
20.07.2015 07:15 18,6 C 94 % 1013,1 hPa 0,0 l/m 0,7 km/h (0 Bft) N 356 0 min 0,000 mm 1,0 UV-I 116 W/m 17,6 C 18,6 C 4,0 km/h (1 Bft) 0,00 %
20.07.2015 07:20 18,8 C 94 % 1013,2 hPa 0,0 l/m 0,0 km/h (0 Bft) O-NO 60 0 min 0,000 mm 1,0 UV-I 131 W/m 17,8 C 18,8 C 0,0 km/h (0 Bft) 0,00 %
20.07.2015 07:25 18,9 C 92 % 1013,4 hPa 0,0 l/m 1,4 km/h (1 Bft) N-NW 343 0 min 0,000 mm 1,0 UV-I 119 W/m 17,6 C 18,9 C 4,0 km/h (1 Bft) 0,00 %
20.07.2015 07:30 19,0 C 92 % 1013,3 hPa 0,0 l/m 0,0 km/h (0 Bft) NO 44 0 min 0,000 mm 1,0 UV-I 116 W/m 17,7 C 19,0 C 0,0 km/h (0 Bft) 0,00 %
20.07.2015 07:35 19,1 C 92 % 1013,3 hPa 0,0 l/m 0,0 km/h (0 Bft) N 351 0 min 0,000 mm 1,0 UV-I 121 W/m 17,8 C 19,1 C 0,0 km/h (0 Bft) 0,00 %
20.07.2015 07:40 19,2 C 92 % 1013,4 hPa 0,0 l/m 0,0 km/h (0 Bft) N 356 0 min 0,000 mm 1,0 UV-I 147 W/m 17,9 C 19,2 C 0,0 km/h (0 Bft) 0,00 %
20.07.2015 07:45 19,3 C 91 % 1013,4 hPa 0,0 l/m 0,0 km/h (0 Bft) NO 42 0 min 0,000 mm 1,0 UV-I 158 W/m 17,8 C 19,3 C 0,0 km/h (0 Bft) 0,00 %
20.07.2015 07:50 19,3 C 91 % 1013,4 hPa 0,0 l/m 0,4 km/h (0 Bft) N 354 0 min 0,000 mm 1,0 UV-I 177 W/m 17,8 C 19,3 C 4,0 km/h (1 Bft) 0,00 %
20.07.2015 07:55 19,5 C 91 % 1013,5 hPa 0,0 l/m 0,0 km/h (0 Bft) N 355 0 min 0,000 mm 1,0 UV-I 164 W/m 18,0 C 19,5 C 0,0 km/h (0 Bft) 0,00 %
20.07.2015 08:00 19,6 C 90 % 1013,5 hPa 0,0 l/m 0,0 km/h (0 Bft) NO 36 0 min 0,000 mm 1,0 UV-I 136 W/m 17,9 C 19,6 C 0,0 km/h (0 Bft) 0,00 %
20.07.2015 08:05 19,6 C 90 % 1013,6 hPa 0,0 l/m 0,4 km/h (0 Bft) O-NO 60 0 min 0,000 mm 1,0 UV-I 138 W/m 17,9 C 19,6 C 4,0 km/h (1 Bft) 0,00 %
20.07.2015 08:10 19,6 C 90 % 1013,6 hPa 0,0 l/m 1,8 km/h (1 Bft) S-SW 198 0 min 0,000 mm 1,0 UV-I 148 W/m 17,9 C 19,6 C 4,0 km/h (1 Bft) 0,00 %
20.07.2015 08:15 19,6 C 90 % 1013,5 hPa 0,0 l/m 3,2 km/h (1 Bft) W-NW 291 0 min 0,000 mm 1,0 UV-I 177 W/m 17,9 C 19,6 C 4,0 km/h (1 Bft) 0,00 %
20.07.2015 08:20 19,6 C 90 % 1013,5 hPa 0,0 l/m 0,7 km/h (0 Bft) N 351 0 min 0,000 mm 1,0 UV-I 162 W/m 17,9 C 19,6 C 4,0 km/h (1 Bft) 0,00 %
20.07.2015 08:25 19,7 C 90 % 1013,7 hPa 0,0 l/m 6,5 km/h (2 Bft) W-SW 256 0 min 0,000 mm 1,0 UV-I 239 W/m 18,0 C 19,7 C 7,9 km/h (2 Bft) 0,00 %
20.07.2015 08:30 19,8 C 89 % 1013,4 hPa 0,0 l/m 4,0 km/h (1 Bft) NO 35 0 min 0,000 mm 1,0 UV-I 203 W/m 17,9 C 19,8 C 7,9 km/h (2 Bft) 0,00 %
20.07.2015 08:35 19,9 C 88 % 1013,6 hPa 0,0 l/m 3,2 km/h (1 Bft) NW 325 0 min 0,000 mm 1,0 UV-I 221 W/m 17,8 C 19,9 C 4,0 km/h (1 Bft) 0,00 %
20.07.2015 08:40 20,1 C 87 % 1013,7 hPa 0,0 l/m 0,0 km/h (0 Bft) N 353 5 min 0,000 mm 1,0 UV-I 592 W/m 17,9 C 20,1 C 0,0 km/h (0 Bft) 0,00 %
20.07.2015 08:45 20,4 C 86 % 1013,8 hPa 0,0 l/m 0,0 km/h (0 Bft) N 351 5 min 0,000 mm 2,0 UV-I 300 W/m 18,0 C 20,4 C 0,0 km/h (0 Bft) 0,00 %
20.07.2015 08:50 20,9 C 82 % 1013,7 hPa 0,0 l/m 5,4 km/h (1 Bft) W 269 0 min 0,000 mm 1,0 UV-I 195 W/m 17,7 C 20,9 C 7,9 km/h (2 Bft) 0,00 %
20.07.2015 08:55 21,2 C 81 % 1013,6 hPa 0,0 l/m 4,0 km/h (1 Bft) W-NW 292 0 min 0,000 mm 1,0 UV-I 193 W/m 17,8 C 21,2 C 7,9 km/h (2 Bft) 0,00 %
20.07.2015 09:00 21,1 C 81 % 1013,7 hPa 0,0 l/m 0,7 km/h (0 Bft) W-NW 303 0 min 0,000 mm 1,0 UV-I 219 W/m 17,7 C 21,1 C 4,0 km/h (1 Bft) 0,00 %
20.07.2015 09:05 21,0 C 81 % 1013,9 hPa 0,0 l/m 0,0 km/h (0 Bft) NO 36 0 min 0,000 mm 1,0 UV-I 166 W/m 17,6 C 21,0 C 0,0 km/h (0 Bft) 0,00 %
20.07.2015 09:10 20,9 C 82 % 1013,8 hPa 0,0 l/m 0,4 km/h (0 Bft) W-SW 255 0 min 0,000 mm 1,0 UV-I 157 W/m 17,7 C 20,9 C 4,0 km/h (1 Bft) 0,00 %
20.07.2015 09:15 20,8 C 82 % 1013,7 hPa 0,0 l/m 2,2 km/h (1 Bft) SW 232 0 min 0,000 mm 1,0 UV-I 226 W/m 17,6 C 20,8 C 4,0 km/h (1 Bft) 0,00 %
20.07.2015 09:20 20,8 C 83 % 1013,8 hPa 0,0 l/m 1,4 km/h (1 Bft) W-NW 303 5 min 0,000 mm 1,0 UV-I 498 W/m 17,8 C 20,8 C 4,0 km/h (1 Bft) 0,00 %
20.07.2015 09:25 20,9 C 82 % 1013,9 hPa 0,0 l/m 0,0 km/h (0 Bft) N 358 5 min 0,000 mm 2,0 UV-I 530 W/m 17,7 C 20,9 C 0,0 km/h (0 Bft) 0,00 %
20.07.2015 09:30 21,4 C 80 % 1013,7 hPa 0,0 l/m 0,0 km/h (0 Bft) N-NO 19 5 min 0,000 mm 2,0 UV-I 561 W/m 17,8 C 21,4 C 0,0 km/h (0 Bft) 0,00 %
20.07.2015 09:35 22,1 C 75 % 1013,7 hPa 0,0 l/m 0,7 km/h (0 Bft) N-NW 347 5 min 0,000 mm 2,0 UV-I 616 W/m 17,5 C 22,1 C 4,0 km/h (1 Bft) 0,00 %
20.07.2015 09:40 22,9 C 71 % 1013,5 hPa 0,0 l/m 0,0 km/h (0 Bft) N 352 5 min 0,000 mm 2,0 UV-I 554 W/m 17,4 C 22,9 C 0,0 km/h (0 Bft) 0,00 %
20.07.2015 09:45 23,7 C 68 % 1013,4 hPa 0,0 l/m 0,0 km/h (0 Bft) N-NO 24 5 min 0,000 mm 2,0 UV-I 365 W/m 17,4 C 23,7 C 0,0 km/h (0 Bft) 0,00 %
20.07.2015 09:50 24,1 C 68 % 1013,4 hPa 0,0 l/m 0,4 km/h (0 Bft) N-NW 342 0 min 0,000 mm 2,0 UV-I 331 W/m 17,8 C 24,1 C 4,0 km/h (1 Bft) 0,00 %
20.07.2015 09:55 24,0 C 70 % 1013,4 hPa 0,0 l/m 0,0 km/h (0 Bft) NO 47 5 min 0,000 mm 2,0 UV-I 424 W/m 18,2 C 24,0 C 0,0 km/h (0 Bft) 0,00 %
20.07.2015 10:00 23,5 C 71 % 1013,4 hPa 0,0 l/m 6,5 km/h (2 Bft) W-SW 256 0 min 0,000 mm 2,0 UV-I 370 W/m 17,9 C 23,5 C 7,9 km/h (2 Bft) 0,00 %
20.07.2015 10:05 23,3 C 69 % 1013,6 hPa 0,0 l/m 3,2 km/h (1 Bft) W-NW 283 0 min 0,000 mm 2,0 UV-I 301 W/m 17,3 C 23,3 C 4,0 km/h (1 Bft) 0,00 %
20.07.2015 10:10 23,3 C 71 % 1013,7 hPa 0,0 l/m 2,2 km/h (1 Bft) N-NW 332 0 min 0,000 mm 2,0 UV-I 346 W/m 17,7 C 23,3 C 4,0 km/h (1 Bft) 0,00 %
20.07.2015 10:15 23,3 C 70 % 1013,6 hPa 0,0 l/m 0,0 km/h (0 Bft) N-NO 25 0 min 0,000 mm 2,0 UV-I 305 W/m 17,5 C 23,3 C 0,0 km/h (0 Bft) 0,00 %
20.07.2015 10:20 23,2 C 71 % 1013,5 hPa 0,0 l/m 0,0 km/h (0 Bft) N-NW 348 5 min 0,000 mm 2,0 UV-I 678 W/m 17,6 C 23,2 C 0,0 km/h (0 Bft) 0,00 %
20.07.2015 10:25 23,1 C 72 % 1013,6 hPa 0,0 l/m 0,4 km/h (0 Bft) N-NO 30 5 min 0,000 mm 2,0 UV-I 759 W/m 17,8 C 23,1 C 4,0 km/h (1 Bft) 0,00 %
20.07.2015 10:30 23,0 C 71 % 1013,6 hPa 0,0 l/m 1,4 km/h (1 Bft) NW 324 5 min 0,000 mm 3,0 UV-I 731 W/m 17,4 C 23,0 C 4,0 km/h (1 Bft) 0,00 %
20.07.2015 10:35 23,3 C 70 % 1013,7 hPa 0,0 l/m 0,0 km/h (0 Bft) N-NW 329 5 min 0,000 mm 4,0 UV-I 739 W/m 17,5 C 23,3 C 0,0 km/h (0 Bft) 0,00 %
20.07.2015 10:40 24,1 C 65 % 1013,6 hPa 0,0 l/m 4,0 km/h (1 Bft) W-SW 256 5 min 0,000 mm 4,0 UV-I 730 W/m 17,1 C 24,1 C 7,9 km/h (2 Bft) 0,00 %
20.07.2015 10:45 24,7 C 63 % 1013,6 hPa 0,0 l/m 0,7 km/h (0 Bft) N-NW 347 5 min 0,000 mm 4,0 UV-I 794 W/m 17,2 C 24,7 C 4,0 km/h (1 Bft) 0,00 %
20.07.2015 10:50 25,1 C 61 % 1013,4 hPa 0,0 l/m 0,4 km/h (0 Bft) NW 310 5 min 0,000 mm 4,0 UV-I 785 W/m 17,0 C 25,1 C 4,0 km/h (1 Bft) 0,00 %
20.07.2015 10:55 25,6 C 60 % 1013,3 hPa 0,0 l/m 3,2 km/h (1 Bft) W-SW 253 5 min 0,000 mm 4,0 UV-I 831 W/m 17,2 C 25,6 C 7,9 km/h (2 Bft) 0,00 %
20.07.2015 11:00 26,0 C 61 % 1013,1 hPa 0,0 l/m 0,7 km/h (0 Bft) N 8 5 min 0,000 mm 4,0 UV-I 449 W/m 17,9 C 26,0 C 4,0 km/h (1 Bft) 0,00 %
20.07.2015 11:05 26,3 C 58 % 1013,0 hPa 0,0 l/m 0,0 km/h (0 Bft) NO 38 5 min 0,000 mm 4,0 UV-I 738 W/m 17,4 C 26,3 C 0,0 km/h (0 Bft) 0,00 %
20.07.2015 11:10 26,7 C 54 % 1013,2 hPa 0,0 l/m 0,0 km/h (0 Bft) N-NW 343 5 min 0,000 mm 4,0 UV-I 990 W/m 16,6 C 26,7 C 0,0 km/h (0 Bft) 0,00 %
20.07.2015 11:15 26,8 C 56 % 1013,0 hPa 0,0 l/m 0,0 km/h (0 Bft) N-NO 29 5 min 0,000 mm 2,0 UV-I 1007 W/m 17,3 C 26,8 C 0,0 km/h (0 Bft) 0,00 %
20.07.2015 11:20 26,6 C 58 % 1013,1 hPa 0,0 l/m 7,9 km/h (2 Bft) W 279 5 min 0,000 mm 4,0 UV-I 602 W/m 17,6 C 26,3 C 11,9 km/h (2 Bft) 0,00 %
20.07.2015 11:25 26,5 C 55 % 1013,1 hPa 0,0 l/m 1,4 km/h (1 Bft) N-NW 346 0 min 0,000 mm 4,0 UV-I 426 W/m 16,7 C 26,5 C 4,0 km/h (1 Bft) 0,00 %
20.07.2015 11:30 26,9 C 53 % 1013,1 hPa 0,0 l/m 0,0 km/h (0 Bft) N-NW 327 0 min 0,000 mm 4,0 UV-I 248 W/m 16,5 C 26,9 C 0,0 km/h (0 Bft) 0,00 %
20.07.2015 11:35 27,0 C 57 % 1013,1 hPa 0,0 l/m 0,4 km/h (0 Bft) N 353 0 min 0,000 mm 5,0 UV-I 373 W/m 17,7 C 27,0 C 4,0 km/h (1 Bft) 0,00 %
20.07.2015 11:40 27,2 C 49 % 1012,9 hPa 0,0 l/m 2,2 km/h (1 Bft) N-NW 327 0 min 0,000 mm 4,0 UV-I 351 W/m 15,5 C 27,2 C 4,0 km/h (1 Bft) 0,00 %
20.07.2015 11:45 27,6 C 50 % 1012,8 hPa 0,0 l/m 1,4 km/h (1 Bft) O-NO 57 5 min 0,000 mm 4,0 UV-I 503 W/m 16,2 C 27,6 C 4,0 km/h (1 Bft) 0,00 %
20.07.2015 11:50 27,4 C 52 % 1012,9 hPa 0,0 l/m 0,0 km/h (0 Bft) NO 52 5 min 0,000 mm 2,0 UV-I 697 W/m 16,7 C 27,4 C 0,0 km/h (0 Bft) 0,00 %
20.07.2015 11:55 27,2 C 48 % 1012,7 hPa 0,0 l/m 0,7 km/h (0 Bft) N-NO 18 5 min 0,000 mm 1,0 UV-I 488 W/m 15,2 C 27,2 C 4,0 km/h (1 Bft) 0,00 %
20.07.2015 12:00 26,9 C 52 % 1013,0 hPa 0,0 l/m 0,0 km/h (0 Bft) NO 50 0 min 0,000 mm 2,0 UV-I 405 W/m 16,2 C 26,9 C 0,0 km/h (0 Bft) 0,00 %
20.07.2015 12:05 26,2 C 56 % 1013,0 hPa 0,0 l/m 0,0 km/h (0 Bft) N-NO 15 0 min 0,000 mm 2,0 UV-I 384 W/m 16,7 C 26,2 C 0,0 km/h (0 Bft) 0,00 %
20.07.2015 12:10 26,0 C 56 % 1013,1 hPa 0,0 l/m 0,0 km/h (0 Bft) NO 53 0 min 0,000 mm 2,0 UV-I 466 W/m 16,5 C 26,0 C 0,0 km/h (0 Bft) 0,00 %
20.07.2015 12:15 26,1 C 53 % 1013,1 hPa 0,0 l/m 0,0 km/h (0 Bft) NO 47 0 min 0,000 mm 3,0 UV-I 437 W/m 15,8 C 26,1 C 0,0 km/h (0 Bft) 0,00 %
20.07.2015 12:20 26,4 C 55 % 1012,9 hPa 0,0 l/m 0,0 km/h (0 Bft) N 5 5 min 0,000 mm 4,0 UV-I 483 W/m 16,6 C 26,4 C 0,0 km/h (0 Bft) 0,00 %
20.07.2015 12:25 26,7 C 50 % 1012,9 hPa 0,0 l/m 1,8 km/h (1 Bft) N-NW 333 0 min 0,000 mm 2,0 UV-I 390 W/m 15,4 C 26,7 C 4,0 km/h (1 Bft) 0,00 %
20.07.2015 12:30 26,6 C 54 % 1012,9 hPa 0,0 l/m 4,7 km/h (1 Bft) NW 312 0 min 0,000 mm 2,0 UV-I 335 W/m 16,5 C 26,6 C 11,9 km/h (2 Bft) 0,00 %
20.07.2015 12:35 26,4 C 53 % 1012,9 hPa 0,0 l/m 0,0 km/h (0 Bft) NO 37 0 min 0,000 mm 2,0 UV-I 388 W/m 16,0 C 26,4 C 0,0 km/h (0 Bft) 0,00 %
20.07.2015 12:40 26,3 C 52 % 1012,9 hPa 0,0 l/m 0,0 km/h (0 Bft) N-NW 331 5 min 0,000 mm 2,0 UV-I 1118 W/m 15,6 C 26,3 C 0,0 km/h (0 Bft) 0,00 %
20.07.2015 12:45 26,4 C 51 % 1012,9 hPa 0,0 l/m 0,7 km/h (0 Bft) NO 43 5 min 0,000 mm 2,0 UV-I 1140 W/m 15,4 C 26,4 C 4,0 km/h (1 Bft) 0,00 %
20.07.2015 12:50 26,4 C 51 % 1012,8 hPa 0,0 l/m 1,8 km/h (1 Bft) W-NW 301 5 min 0,000 mm 2,0 UV-I 1045 W/m 15,4 C 26,4 C 4,0 km/h (1 Bft) 0,00 %
20.07.2015 12:55 26,2 C 52 % 1013,0 hPa 0,0 l/m 0,4 km/h (0 Bft) NO 35 5 min 0,000 mm 2,0 UV-I 1016 W/m 15,6 C 26,2 C 4,0 km/h (1 Bft) 0,00 %
20.07.2015 13:00 26,0 C 52 % 1012,9 hPa 0,0 l/m 0,4 km/h (0 Bft) N-NW 346 5 min 0,000 mm 2,0 UV-I 1030 W/m 15,4 C 26,0 C 4,0 km/h (1 Bft) 0,00 %
20.07.2015 13:05 25,9 C 52 % 1012,9 hPa 0,0 l/m 0,0 km/h (0 Bft) N-NO 29 5 min 0,000 mm 5,0 UV-I 956 W/m 15,3 C 25,9 C 0,0 km/h (0 Bft) 0,00 %
20.07.2015 13:10 26,3 C 53 % 1013,0 hPa 0,0 l/m 0,0 km/h (0 Bft) NO 53 5 min 0,000 mm 6,0 UV-I 937 W/m 15,9 C 26,3 C 0,0 km/h (0 Bft) 0,00 %
20.07.2015 13:15 27,1 C 51 % 1012,7 hPa 0,0 l/m 0,0 km/h (0 Bft) NO 43 5 min 0,000 mm 6,0 UV-I 743 W/m 16,1 C 27,1 C 0,0 km/h (0 Bft) 0,00 %
20.07.2015 13:20 28,0 C 50 % 1012,5 hPa 0,0 l/m 4,0 km/h (1 Bft) N-NW 333 5 min 0,000 mm 5,0 UV-I 985 W/m 16,6 C 28,0 C 7,9 km/h (2 Bft) 0,00 %
20.07.2015 13:25 28,6 C 48 % 1012,5 hPa 0,0 l/m 0,0 km/h (0 Bft) N-NO 25 5 min 0,000 mm 5,0 UV-I 973 W/m 16,5 C 28,6 C 0,0 km/h (0 Bft) 0,00 %
20.07.2015 13:30 28,7 C 45 % 1012,5 hPa 0,0 l/m 1,8 km/h (1 Bft) W-NW 302 5 min 0,000 mm 3,0 UV-I 965 W/m 15,6 C 28,7 C 4,0 km/h (1 Bft) 0,00 %
20.07.2015 13:35 28,6 C 45 % 1012,2 hPa 0,0 l/m 0,0 km/h (0 Bft) N 352 5 min 0,000 mm 5,0 UV-I 944 W/m 15,5 C 28,6 C 0,0 km/h (0 Bft) 0,00 %
20.07.2015 13:40 28,5 C 47 % 1012,2 hPa 0,0 l/m 0,0 km/h (0 Bft) NO 47 5 min 0,000 mm 5,0 UV-I 964 W/m 16,1 C 28,5 C 0,0 km/h (0 Bft) 0,00 %
20.07.2015 13:45 28,5 C 46 % 1012,2 hPa 0,0 l/m 2,2 km/h (1 Bft) W-NW 285 5 min 0,000 mm 5,0 UV-I 962 W/m 15,7 C 28,5 C 4,0 km/h (1 Bft) 0,00 %
20.07.2015 13:50 28,6 C 44 % 1012,1 hPa 0,0 l/m 0,0 km/h (0 Bft) NO 53 5 min 0,000 mm 5,0 UV-I 982 W/m 15,1 C 28,6 C 0,0 km/h (0 Bft) 0,00 %
20.07.2015 13:55 28,9 C 45 % 1012,2 hPa 0,0 l/m 0,0 km/h (0 Bft) NO 43 5 min 0,000 mm 5,0 UV-I 1000 W/m 15,8 C 28,9 C 0,0 km/h (0 Bft) 0,00 %
20.07.2015 14:00 29,1 C 44 % 1011,9 hPa 0,0 l/m 0,4 km/h (0 Bft) O 92 5 min 0,000 mm 5,0 UV-I 1017 W/m 15,6 C 29,1 C 4,0 km/h (1 Bft) 0,00 %
20.07.2015 14:05 29,2 C 44 % 1011,9 hPa 0,0 l/m 1,8 km/h (1 Bft) SW 233 5 min 0,000 mm 5,0 UV-I 1011 W/m 15,7 C 29,2 C 4,0 km/h (1 Bft) 0,00 %
20.07.2015 14:10 29,2 C 43 % 1011,9 hPa 0,0 l/m 1,8 km/h (1 Bft) N-NO 23 5 min 0,000 mm 5,0 UV-I 994 W/m 15,3 C 29,2 C 4,0 km/h (1 Bft) 0,00 %
20.07.2015 14:15 29,1 C 44 % 1011,9 hPa 0,0 l/m 0,0 km/h (0 Bft) NO 43 5 min 0,000 mm 5,0 UV-I 1028 W/m 15,6 C 29,1 C 0,0 km/h (0 Bft) 0,00 %
20.07.2015 14:20 28,9 C 42 % 1011,8 hPa 0,0 l/m 1,4 km/h (1 Bft) N-NW 330 5 min 0,000 mm 5,0 UV-I 1113 W/m 14,7 C 28,9 C 4,0 km/h (1 Bft) 0,00 %
20.07.2015 14:25 29,0 C 44 % 1011,7 hPa 0,0 l/m 5,8 km/h (2 Bft) W-NW 292 5 min 0,000 mm 5,0 UV-I 530 W/m 15,5 C 29,0 C 11,9 km/h (2 Bft) 0,00 %
20.07.2015 14:30 29,0 C 43 % 1011,6 hPa 0,0 l/m 0,0 km/h (0 Bft) O-NO 64 5 min 0,000 mm 5,0 UV-I 1129 W/m 15,1 C 29,0 C 0,0 km/h (0 Bft) 0,00 %
20.07.2015 14:35 29,1 C 42 % 1011,7 hPa 0,0 l/m 0,0 km/h (0 Bft) N 358 5 min 0,000 mm 5,0 UV-I 1142 W/m 14,9 C 29,1 C 0,0 km/h (0 Bft) 0,00 %
20.07.2015 14:40 29,5 C 41 % 1011,3 hPa 0,0 l/m 0,0 km/h (0 Bft) NO 39 0 min 0,000 mm 5,0 UV-I 356 W/m 14,8 C 29,5 C 0,0 km/h (0 Bft) 0,00 %
20.07.2015 14:45 29,7 C 42 % 1011,3 hPa 0,0 l/m 0,4 km/h (0 Bft) SO 125 5 min 0,000 mm 5,0 UV-I 1115 W/m 15,4 C 29,7 C 4,0 km/h (1 Bft) 0,00 %
20.07.2015 14:50 29,7 C 41 % 1011,4 hPa 0,0 l/m 0,0 km/h (0 Bft) N-NO 30 5 min 0,000 mm 5,0 UV-I 1086 W/m 15,0 C 29,7 C 0,0 km/h (0 Bft) 0,00 %
20.07.2015 14:55 29,8 C 40 % 1011,4 hPa 0,0 l/m 0,0 km/h (0 Bft) O-NO 67 5 min 0,000 mm 5,0 UV-I 1022 W/m 14,7 C 29,8 C 0,0 km/h (0 Bft) 0,00 %
20.07.2015 15:00 30,2 C 40 % 1011,4 hPa 0,0 l/m 0,4 km/h (0 Bft) NW 318 5 min 0,000 mm 3,0 UV-I 539 W/m 15,1 C 30,2 C 4,0 km/h (1 Bft) 0,00 %
20.07.2015 15:05 30,5 C 40 % 1011,2 hPa 0,0 l/m 0,0 km/h (0 Bft) N-NO 22 0 min 0,000 mm 4,0 UV-I 370 W/m 15,3 C 30,5 C 0,0 km/h (0 Bft) 0,00 %
20.07.2015 15:10 30,2 C 41 % 1011,2 hPa 0,0 l/m 0,4 km/h (0 Bft) N 352 5 min 0,000 mm 5,0 UV-I 584 W/m 15,5 C 30,2 C 4,0 km/h (1 Bft) 0,00 %
20.07.2015 15:15 30,0 C 39 % 1011,2 hPa 0,0 l/m 0,4 km/h (0 Bft) N-NW 330 5 min 0,000 mm 4,0 UV-I 940 W/m 14,5 C 30,0 C 4,0 km/h (1 Bft) 0,00 %
20.07.2015 15:20 30,2 C 40 % 1011,1 hPa 0,0 l/m 4,0 km/h (1 Bft) W-SW 256 0 min 0,000 mm 4,0 UV-I 243 W/m 15,1 C 30,2 C 7,9 km/h (2 Bft) 0,00 %
20.07.2015 15:25 30,5 C 39 % 1010,8 hPa 0,0 l/m 6,8 km/h (2 Bft) W-SW 256 5 min 0,000 mm 4,0 UV-I 923 W/m 15,0 C 30,5 C 7,9 km/h (2 Bft) 0,00 %
20.07.2015 15:30 30,7 C 39 % 1010,9 hPa 0,0 l/m 0,0 km/h (0 Bft) NO 50 5 min 0,000 mm 2,0 UV-I 1033 W/m 15,1 C 30,7 C 0,0 km/h (0 Bft) 0,00 %
20.07.2015 15:35 30,7 C 39 % 1011,0 hPa 0,0 l/m 0,0 km/h (0 Bft) O-NO 63 5 min 0,000 mm 3,0 UV-I 1018 W/m 15,1 C 30,7 C 0,0 km/h (0 Bft) 0,00 %
20.07.2015 15:40 30,3 C 41 % 1010,7 hPa 0,0 l/m 0,0 km/h (0 Bft) NO 36 5 min 0,000 mm 2,0 UV-I 938 W/m 15,6 C 30,3 C 0,0 km/h (0 Bft) 0,00 %
20.07.2015 15:45 29,5 C 42 % 1010,9 hPa 0,0 l/m 0,0 km/h (0 Bft) NO 40 5 min 0,000 mm 2,0 UV-I 677 W/m 15,2 C 29,5 C 0,0 km/h (0 Bft) 0,00 %
20.07.2015 15:50 29,2 C 42 % 1011,1 hPa 0,0 l/m 0,0 km/h (0 Bft) N-NO 26 5 min 0,000 mm 2,0 UV-I 1012 W/m 14,9 C 29,2 C 0,0 km/h (0 Bft) 0,00 %
20.07.2015 15:55 29,1 C 42 % 1011,0 hPa 0,0 l/m 0,0 km/h (0 Bft) O 81 5 min 0,000 mm 2,0 UV-I 992 W/m 14,9 C 29,1 C 0,0 km/h (0 Bft) 0,00 %
20.07.2015 16:00 29,0 C 43 % 1010,9 hPa 0,0 l/m 0,7 km/h (0 Bft) N 352 5 min 0,000 mm 3,0 UV-I 1008 W/m 15,1 C 29,0 C 4,0 km/h (1 Bft) 0,00 %
20.07.2015 16:05 29,0 C 42 % 1010,9 hPa 0,0 l/m 0,0 km/h (0 Bft) N-NO 13 5 min 0,000 mm 3,0 UV-I 877 W/m 14,8 C 29,0 C 0,0 km/h (0 Bft) 0,00 %
20.07.2015 16:10 29,4 C 39 % 1010,7 hPa 0,0 l/m 0,7 km/h (0 Bft) N 349 5 min 0,000 mm 3,0 UV-I 918 W/m 14,0 C 29,4 C 4,0 km/h (1 Bft) 0,00 %
20.07.2015 16:15 30,0 C 38 % 1010,8 hPa 0,0 l/m 0,0 km/h (0 Bft) O-SO 110 5 min 0,000 mm 3,0 UV-I 929 W/m 14,1 C 30,0 C 0,0 km/h (0 Bft) 0,00 %
20.07.2015 16:20 30,4 C 37 % 1010,5 hPa 0,0 l/m 0,7 km/h (0 Bft) N-NO 29 5 min 0,000 mm 2,0 UV-I 906 W/m 14,0 C 30,4 C 4,0 km/h (1 Bft) 0,00 %
20.07.2015 16:25 30,4 C 39 % 1010,6 hPa 0,0 l/m 0,4 km/h (0 Bft) N-NW 333 5 min 0,000 mm 3,0 UV-I 699 W/m 14,9 C 30,4 C 4,0 km/h (1 Bft) 0,00 %
20.07.2015 16:30 30,2 C 39 % 1010,7 hPa 0,0 l/m 0,7 km/h (0 Bft) O 87 0 min 0,000 mm 3,0 UV-I 266 W/m 14,7 C 30,2 C 4,0 km/h (1 Bft) 0,00 %
20.07.2015 16:35 30,1 C 39 % 1010,6 hPa 0,0 l/m 2,2 km/h (1 Bft) O-NO 65 5 min 0,000 mm 3,0 UV-I 912 W/m 14,6 C 30,1 C 4,0 km/h (1 Bft) 0,00 %
20.07.2015 16:40 30,2 C 39 % 1010,4 hPa 0,0 l/m 0,0 km/h (0 Bft) NO 46 5 min 0,000 mm 3,0 UV-I 879 W/m 14,7 C 30,2 C 0,0 km/h (0 Bft) 0,00 %
20.07.2015 16:45 30,3 C 37 % 1010,4 hPa 0,0 l/m 1,4 km/h (1 Bft) N-NW 341 5 min 0,000 mm 3,0 UV-I 870 W/m 14,0 C 30,3 C 4,0 km/h (1 Bft) 0,00 %
20.07.2015 16:50 30,5 C 39 % 1010,4 hPa 0,0 l/m 0,0 km/h (0 Bft) O-NO 58 5 min 0,000 mm 2,0 UV-I 856 W/m 15,0 C 30,5 C 0,0 km/h (0 Bft) 0,00 %
20.07.2015 16:55 30,6 C 39 % 1010,3 hPa 0,0 l/m 0,4 km/h (0 Bft) N-NO 32 5 min 0,000 mm 2,0 UV-I 831 W/m 15,0 C 30,6 C 4,0 km/h (1 Bft) 0,00 %
20.07.2015 17:00 30,5 C 39 % 1010,4 hPa 0,0 l/m 0,7 km/h (0 Bft) N-NW 330 5 min 0,000 mm 2,0 UV-I 841 W/m 15,0 C 30,5 C 4,0 km/h (1 Bft) 0,00 %
20.07.2015 17:05 30,3 C 38 % 1010,3 hPa 0,0 l/m 0,0 km/h (0 Bft) O-NO 57 5 min 0,000 mm 2,0 UV-I 838 W/m 14,4 C 30,3 C 0,0 km/h (0 Bft) 0,00 %
20.07.2015 17:10 30,1 C 39 % 1010,3 hPa 0,0 l/m 4,3 km/h (1 Bft) NW 308 5 min 0,000 mm 1,0 UV-I 829 W/m 14,6 C 30,1 C 7,9 km/h (2 Bft) 0,00 %
20.07.2015 17:15 30,0 C 39 % 1010,3 hPa 0,0 l/m 0,0 km/h (0 Bft) NO 49 5 min 0,000 mm 2,0 UV-I 804 W/m 14,5 C 30,0 C 0,0 km/h (0 Bft) 0,00 %
20.07.2015 17:20 29,9 C 40 % 1010,1 hPa 0,0 l/m 0,7 km/h (0 Bft) N 8 5 min 0,000 mm 2,0 UV-I 794 W/m 14,8 C 29,9 C 4,0 km/h (1 Bft) 0,00 %
20.07.2015 17:25 29,9 C 38 % 1010,3 hPa 0,0 l/m 0,0 km/h (0 Bft) NO 56 5 min 0,000 mm 2,0 UV-I 743 W/m 14,0 C 29,9 C 0,0 km/h (0 Bft) 0,00 %
20.07.2015 17:30 30,0 C 40 % 1010,4 hPa 0,0 l/m 1,8 km/h (1 Bft) NO 45 5 min 0,000 mm 1,0 UV-I 724 W/m 14,9 C 30,0 C 4,0 km/h (1 Bft) 0,00 %
20.07.2015 17:35 30,0 C 40 % 1010,2 hPa 0,0 l/m 0,0 km/h (0 Bft) NO 41 5 min 0,000 mm 1,0 UV-I 723 W/m 14,9 C 30,0 C 0,0 km/h (0 Bft) 0,00 %
20.07.2015 17:40 30,0 C 41 % 1010,3 hPa 0,0 l/m 1,8 km/h (1 Bft) NW 320 5 min 0,000 mm 1,0 UV-I 675 W/m 15,3 C 30,0 C 4,0 km/h (1 Bft) 0,00 %
20.07.2015 17:45 30,6 C 37 % 1010,1 hPa 0,0 l/m 0,0 km/h (0 Bft) NO 40 5 min 0,000 mm 1,0 UV-I 676 W/m 14,2 C 30,6 C 0,0 km/h (0 Bft) 0,00 %
20.07.2015 17:50 30,8 C 37 % 1010,0 hPa 0,0 l/m 0,0 km/h (0 Bft) N 352 5 min 0,000 mm 1,0 UV-I 652 W/m 14,4 C 30,8 C 0,0 km/h (0 Bft) 0,00 %
20.07.2015 17:55 30,9 C 36 % 1010,1 hPa 0,0 l/m 0,0 km/h (0 Bft) N-NW 338 5 min 0,000 mm 1,0 UV-I 619 W/m 14,1 C 30,9 C 0,0 km/h (0 Bft) 0,00 %
20.07.2015 18:00 30,8 C 39 % 1010,0 hPa 0,0 l/m 0,0 km/h (0 Bft) O-NO 61 5 min 0,000 mm 1,0 UV-I 610 W/m 15,2 C 30,8 C 0,0 km/h (0 Bft) 0,00 %
20.07.2015 18:05 30,8 C 35 % 1010,1 hPa 0,0 l/m 0,0 km/h (0 Bft) N-NO 22 5 min 0,000 mm 1,0 UV-I 604 W/m 13,5 C 30,8 C 0,0 km/h (0 Bft) 0,00 %
20.07.2015 18:10 30,8 C 35 % 1010,1 hPa 0,0 l/m 0,0 km/h (0 Bft) NO 46 5 min 0,000 mm 1,0 UV-I 583 W/m 13,5 C 30,8 C 0,0 km/h (0 Bft) 0,00 %
20.07.2015 18:15 30,8 C 38 % 1010,2 hPa 0,0 l/m 0,0 km/h (0 Bft) N-NO 26 5 min 0,000 mm 1,0 UV-I 551 W/m 14,8 C 30,8 C 0,0 km/h (0 Bft) 0,00 %
20.07.2015 18:20 30,6 C 37 % 1010,0 hPa 0,0 l/m 0,4 km/h (0 Bft) NO 38 5 min 0,000 mm 1,0 UV-I 525 W/m 14,2 C 30,6 C 4,0 km/h (1 Bft) 0,00 %
20.07.2015 18:25 30,5 C 38 % 1010,2 hPa 0,0 l/m 0,0 km/h (0 Bft) N-NO 30 5 min 0,000 mm 1,0 UV-I 464 W/m 14,5 C 30,5 C 0,0 km/h (0 Bft) 0,00 %
20.07.2015 18:30 30,5 C 39 % 1009,8 hPa 0,0 l/m 0,7 km/h (0 Bft) N-NW 334 5 min 0,000 mm 1,0 UV-I 438 W/m 15,0 C 30,5 C 4,0 km/h (1 Bft) 0,00 %
20.07.2015 18:35 30,6 C 38 % 1009,8 hPa 0,0 l/m 0,0 km/h (0 Bft) N-NO 21 5 min 0,000 mm 1,0 UV-I 411 W/m 14,6 C 30,6 C 0,0 km/h (0 Bft) 0,00 %
20.07.2015 18:40 30,7 C 39 % 1009,8 hPa 0,0 l/m 0,0 km/h (0 Bft) NO 40 5 min 0,000 mm 1,0 UV-I 366 W/m 15,1 C 30,7 C 0,0 km/h (0 Bft) 0,00 %
20.07.2015 18:45 30,6 C 39 % 1009,9 hPa 0,0 l/m 0,0 km/h (0 Bft) N-NW 342 5 min 0,000 mm 1,0 UV-I 331 W/m 15,0 C 30,6 C 0,0 km/h (0 Bft) 0,00 %
20.07.2015 18:50 30,5 C 39 % 1009,7 hPa 0,0 l/m 0,0 km/h (0 Bft) NO 43 5 min 0,000 mm 1,0 UV-I 296 W/m 15,0 C 30,5 C 0,0 km/h (0 Bft) 0,00 %
20.07.2015 18:55 30,6 C 39 % 1009,8 hPa 0,0 l/m 0,0 km/h (0 Bft) NO 52 5 min 0,000 mm 1,0 UV-I 265 W/m 15,0 C 30,6 C 0,0 km/h (0 Bft) 0,00 %
20.07.2015 19:00 30,8 C 38 % 1009,7 hPa 0,0 l/m 0,0 km/h (0 Bft) NO 53 5 min 0,000 mm 1,0 UV-I 229 W/m 14,8 C 30,8 C 0,0 km/h (0 Bft) 0,00 %
20.07.2015 19:05 30,9 C 39 % 1009,8 hPa 0,0 l/m 0,0 km/h (0 Bft) NO 51 5 min 0,000 mm 1,0 UV-I 169 W/m 15,3 C 30,9 C 0,0 km/h (0 Bft) 0,00 %
20.07.2015 19:10 30,6 C 39 % 1009,8 hPa 0,0 l/m 0,0 km/h (0 Bft) N-NW 347 0 min 0,000 mm 1,0 UV-I 80 W/m 15,0 C 30,6 C 0,0 km/h (0 Bft) 0,00 %
20.07.2015 19:15 30,1 C 41 % 1009,8 hPa 0,0 l/m 0,0 km/h (0 Bft) NO 46 0 min 0,000 mm 1,0 UV-I 56 W/m 15,4 C 30,1 C 0,0 km/h (0 Bft) 0,00 %
20.07.2015 19:20 29,8 C 41 % 1010,1 hPa 0,0 l/m 0,0 km/h (0 Bft) N-NW 348 0 min 0,000 mm 1,0 UV-I 74 W/m 15,1 C 29,8 C 0,0 km/h (0 Bft) 0,00 %
20.07.2015 19:25 29,6 C 42 % 1010,1 hPa 0,0 l/m 0,0 km/h (0 Bft) NO 44 0 min 0,000 mm 1,0 UV-I 34 W/m 15,3 C 29,6 C 0,0 km/h (0 Bft) 0,00 %
20.07.2015 19:30 29,4 C 42 % 1010,2 hPa 0,0 l/m 0,0 km/h (0 Bft) N-NO 24 0 min 0,000 mm 1,0 UV-I 26 W/m 15,1 C 29,4 C 0,0 km/h (0 Bft) 0,00 %
20.07.2015 19:35 29,4 C 42 % 1010,1 hPa 0,0 l/m 0,0 km/h (0 Bft) W 272 0 min 0,000 mm 1,0 UV-I 18 W/m 15,1 C 29,4 C 0,0 km/h (0 Bft) 0,00 %
20.07.2015 19:40 29,3 C 42 % 1010,1 hPa 0,0 l/m 0,0 km/h (0 Bft) N-NO 20 0 min 0,000 mm 0,0 UV-I 8 W/m 15,0 C 29,3 C 0,0 km/h (0 Bft) 0,00 %
20.07.2015 19:45 29,2 C 42 % 1010,2 hPa 0,0 l/m 0,0 km/h (0 Bft) N 351 0 min 0,000 mm 0,0 UV-I 4 W/m 14,9 C 29,2 C 0,0 km/h (0 Bft) 0,00 %
20.07.2015 19:50 29,1 C 43 % 1010,1 hPa 0,0 l/m 0,0 km/h (0 Bft) N-NO 29 0 min 0,000 mm 0,0 UV-I 3 W/m 15,2 C 29,1 C 0,0 km/h (0 Bft) 0,00 %
20.07.2015 19:55 28,8 C 44 % 1010,2 hPa 0,0 l/m 0,0 km/h (0 Bft) NO 39 0 min 0,000 mm 0,0 UV-I 3 W/m 15,3 C 28,8 C 0,0 km/h (0 Bft) 0,00 %
20.07.2015 20:00 28,7 C 44 % 1010,3 hPa 0,0 l/m 0,0 km/h (0 Bft) NO 41 0 min 0,000 mm 0,0 UV-I 3 W/m 15,2 C 28,7 C 0,0 km/h (0 Bft) 0,00 %
20.07.2015 20:05 28,6 C 44 % 1010,4 hPa 0,0 l/m 0,0 km/h (0 Bft) NO 41 0 min 0,000 mm 0,0 UV-I 3 W/m 15,1 C 28,6 C 0,0 km/h (0 Bft) 0,00 %
20.07.2015 20:10 28,5 C 44 % 1010,2 hPa 0,0 l/m 0,0 km/h (0 Bft) NO 48 0 min 0,000 mm 0,0 UV-I 3 W/m 15,0 C 28,5 C 0,0 km/h (0 Bft) 0,00 %
20.07.2015 20:15 28,3 C 46 % 1010,3 hPa 0,0 l/m 0,0 km/h (0 Bft) NO 49 0 min 0,000 mm 0,0 UV-I 2 W/m 15,6 C 28,3 C 0,0 km/h (0 Bft) 0,00 %
20.07.2015 20:20 27,8 C 48 % 1010,5 hPa 0,0 l/m 0,0 km/h (0 Bft) NO 53 0 min 0,000 mm 0,0 UV-I 0 W/m 15,8 C 27,8 C 0,0 km/h (0 Bft) 0,00 %
20.07.2015 20:25 27,1 C 49 % 1010,6 hPa 0,0 l/m 0,0 km/h (0 Bft) NO 53 0 min 0,000 mm 0,0 UV-I 0 W/m 15,4 C 27,1 C 0,0 km/h (0 Bft) 0,00 %
20.07.2015 20:30 26,6 C 50 % 1010,7 hPa 0,0 l/m 0,0 km/h (0 Bft) NO 56 0 min 0,000 mm 0,0 UV-I 0 W/m 15,3 C 26,6 C 0,0 km/h (0 Bft) 0,00 %
20.07.2015 20:35 26,1 C 53 % 1011,1 hPa 0,0 l/m 0,0 km/h (0 Bft) O-NO 72 0 min 0,000 mm 0,0 UV-I 0 W/m 15,8 C 26,1 C 0,0 km/h (0 Bft) 0,00 %
20.07.2015 20:40 25,7 C 55 % 1011,0 hPa 0,0 l/m 0,0 km/h (0 Bft) O-NO 58 0 min 0,000 mm 0,0 UV-I 0 W/m 16,0 C 25,7 C 0,0 km/h (0 Bft) 0,00 %
20.07.2015 20:45 25,3 C 56 % 1011,2 hPa 0,0 l/m 0,0 km/h (0 Bft) O-NO 65 0 min 0,000 mm 0,0 UV-I 0 W/m 15,9 C 25,3 C 0,0 km/h (0 Bft) 0,00 %
20.07.2015 20:50 24,9 C 58 % 1011,3 hPa 0,0 l/m 0,0 km/h (0 Bft) O-NO 57 0 min 0,000 mm 0,0 UV-I 0 W/m 16,1 C 24,9 C 0,0 km/h (0 Bft) 0,00 %
20.07.2015 20:55 24,6 C 59 % 1011,4 hPa 0,0 l/m 0,0 km/h (0 Bft) NO 50 0 min 0,000 mm 0,0 UV-I 0 W/m 16,0 C 24,6 C 0,0 km/h (0 Bft) 0,00 %
20.07.2015 21:00 24,4 C 60 % 1011,5 hPa 0,0 l/m 0,0 km/h (0 Bft) O-NO 57 0 min 0,000 mm 0,0 UV-I 0 W/m 16,1 C 24,4 C 0,0 km/h (0 Bft) 0,00 %
20.07.2015 21:05 24,2 C 60 % 1011,8 hPa 0,0 l/m 0,0 km/h (0 Bft) NO 54 0 min 0,000 mm 0,0 UV-I 0 W/m 15,9 C 24,2 C 0,0 km/h (0 Bft) 0,00 %
20.07.2015 21:10 24,1 C 61 % 1011,6 hPa 0,0 l/m 0,0 km/h (0 Bft) NO 43 0 min 0,000 mm 0,0 UV-I 0 W/m 16,1 C 24,1 C 0,0 km/h (0 Bft) 0,00 %
20.07.2015 21:15 23,9 C 62 % 1011,8 hPa 0,0 l/m 0,0 km/h (0 Bft) NO 36 0 min 0,000 mm 0,0 UV-I 0 W/m 16,2 C 23,9 C 0,0 km/h (0 Bft) 0,00 %
20.07.2015 21:20 23,6 C 64 % 1012,0 hPa 0,0 l/m 0,0 km/h (0 Bft) NO 43 0 min 0,000 mm 0,0 UV-I 0 W/m 16,4 C 23,6 C 0,0 km/h (0 Bft) 0,00 %
20.07.2015 21:25 23,4 C 64 % 1012,0 hPa 0,0 l/m 0,0 km/h (0 Bft) NO 35 0 min 0,000 mm 0,0 UV-I 0 W/m 16,2 C 23,4 C 0,0 km/h (0 Bft) 0,00 %
20.07.2015 21:30 23,2 C 68 % 1012,1 hPa 0,0 l/m 0,0 km/h (0 Bft) NO 49 0 min 0,000 mm 0,0 UV-I 0 W/m 17,0 C 23,2 C 0,0 km/h (0 Bft) 0,00 %
20.07.2015 21:35 23,0 C 69 % 1012,1 hPa 0,0 l/m 0,0 km/h (0 Bft) NO 55 0 min 0,000 mm 0,0 UV-I 0 W/m 17,0 C 23,0 C 0,0 km/h (0 Bft) 0,00 %
20.07.2015 21:40 22,8 C 71 % 1012,1 hPa 0,0 l/m 0,0 km/h (0 Bft) NO 46 0 min 0,000 mm 0,0 UV-I 0 W/m 17,3 C 22,8 C 0,0 km/h (0 Bft) 0,00 %
20.07.2015 21:45 22,5 C 69 % 1012,2 hPa 0,0 l/m 0,0 km/h (0 Bft) NO 55 0 min 0,000 mm 0,0 UV-I 0 W/m 16,5 C 22,5 C 0,0 km/h (0 Bft) 0,00 %
20.07.2015 21:50 22,4 C 70 % 1012,4 hPa 0,0 l/m 0,0 km/h (0 Bft) O-NO 58 0 min 0,000 mm 0,0 UV-I 0 W/m 16,7 C 22,4 C 0,0 km/h (0 Bft) 0,00 %
20.07.2015 21:55 22,2 C 69 % 1012,4 hPa 0,0 l/m 0,0 km/h (0 Bft) NO 55 0 min 0,000 mm 0,0 UV-I 0 W/m 16,2 C 22,2 C 0,0 km/h (0 Bft) 0,00 %
20.07.2015 22:00 22,1 C 71 % 1012,5 hPa 0,0 l/m 0,0 km/h (0 Bft) NO 56 0 min 0,000 mm 0,0 UV-I 0 W/m 16,6 C 22,1 C 0,0 km/h (0 Bft) 0,00 %
20.07.2015 22:05 22,0 C 70 % 1012,4 hPa 0,0 l/m 0,0 km/h (0 Bft) NO 42 0 min 0,000 mm 0,0 UV-I 0 W/m 16,3 C 22,0 C 0,0 km/h (0 Bft) 0,00 %
20.07.2015 22:10 21,8 C 70 % 1012,3 hPa 0,0 l/m 0,0 km/h (0 Bft) NO 50 0 min 0,000 mm 0,0 UV-I 0 W/m 16,1 C 21,8 C 0,0 km/h (0 Bft) 0,00 %
20.07.2015 22:15 21,7 C 71 % 1012,4 hPa 0,0 l/m 0,0 km/h (0 Bft) NO 43 0 min 0,000 mm 0,0 UV-I 0 W/m 16,2 C 21,7 C 0,0 km/h (0 Bft) 0,00 %
20.07.2015 22:20 21,5 C 73 % 1012,7 hPa 0,0 l/m 0,0 km/h (0 Bft) NO 39 0 min 0,000 mm 0,0 UV-I 0 W/m 16,4 C 21,5 C 0,0 km/h (0 Bft) 0,00 %
20.07.2015 22:25 21,3 C 74 % 1012,4 hPa 0,0 l/m 0,0 km/h (0 Bft) NO 42 0 min 0,000 mm 0,0 UV-I 0 W/m 16,5 C 21,3 C 0,0 km/h (0 Bft) 0,00 %
20.07.2015 22:30 21,2 C 75 % 1012,6 hPa 0,0 l/m 0,0 km/h (0 Bft) NO 42 0 min 0,000 mm 0,0 UV-I 0 W/m 16,6 C 21,2 C 0,0 km/h (0 Bft) 0,00 %
20.07.2015 22:35 21,0 C 76 % 1012,9 hPa 0,0 l/m 0,0 km/h (0 Bft) NO 48 0 min 0,000 mm 0,0 UV-I 0 W/m 16,6 C 21,0 C 0,0 km/h (0 Bft) 0,00 %
20.07.2015 22:40 20,8 C 77 % 1012,8 hPa 0,0 l/m 0,0 km/h (0 Bft) NO 47 0 min 0,000 mm 0,0 UV-I 0 W/m 16,6 C 20,8 C 0,0 km/h (0 Bft) 0,00 %
20.07.2015 22:45 20,7 C 76 % 1012,9 hPa 0,0 l/m 0,0 km/h (0 Bft) NO 52 0 min 0,000 mm 0,0 UV-I 0 W/m 16,3 C 20,7 C 0,0 km/h (0 Bft) 0,00 %
20.07.2015 22:50 20,5 C 77 % 1012,8 hPa 0,0 l/m 0,0 km/h (0 Bft) O-NO 57 0 min 0,000 mm 0,0 UV-I 0 W/m 16,3 C 20,5 C 0,0 km/h (0 Bft) 0,00 %
20.07.2015 22:55 20,4 C 79 % 1013,1 hPa 0,0 l/m 0,0 km/h (0 Bft) NO 41 0 min 0,000 mm 0,0 UV-I 0 W/m 16,6 C 20,4 C 0,0 km/h (0 Bft) 0,00 %
20.07.2015 23:00 20,3 C 79 % 1013,0 hPa 0,0 l/m 0,0 km/h (0 Bft) NO 43 0 min 0,000 mm 0,0 UV-I 0 W/m 16,5 C 20,3 C 0,0 km/h (0 Bft) 0,00 %
20.07.2015 23:05 20,3 C 79 % 1012,9 hPa 0,0 l/m 0,0 km/h (0 Bft) NO 43 0 min 0,000 mm 0,0 UV-I 0 W/m 16,5 C 20,3 C 0,0 km/h (0 Bft) 0,00 %
20.07.2015 23:10 20,2 C 79 % 1012,9 hPa 0,0 l/m 0,0 km/h (0 Bft) NO 44 0 min 0,000 mm 0,0 UV-I 0 W/m 16,4 C 20,2 C 0,0 km/h (0 Bft) 0,00 %
20.07.2015 23:15 20,1 C 79 % 1013,0 hPa 0,0 l/m 0,0 km/h (0 Bft) NO 44 0 min 0,000 mm 0,0 UV-I 0 W/m 16,3 C 20,1 C 0,0 km/h (0 Bft) 0,00 %
20.07.2015 23:20 20,0 C 80 % 1012,9 hPa 0,0 l/m 0,0 km/h (0 Bft) N-NO 14 0 min 0,000 mm 0,0 UV-I 0 W/m 16,4 C 20,0 C 0,0 km/h (0 Bft) 0,00 %
20.07.2015 23:25 19,9 C 81 % 1012,9 hPa 0,0 l/m 0,0 km/h (0 Bft) NO 44 0 min 0,000 mm 0,0 UV-I 0 W/m 16,5 C 19,9 C 0,0 km/h (0 Bft) 0,00 %
20.07.2015 23:30 19,8 C 81 % 1013,1 hPa 0,0 l/m 0,0 km/h (0 Bft) NO 37 0 min 0,000 mm 0,0 UV-I 0 W/m 16,4 C 19,8 C 0,0 km/h (0 Bft) 0,00 %
20.07.2015 23:35 19,7 C 81 % 1013,0 hPa 0,0 l/m 0,0 km/h (0 Bft) NO 40 0 min 0,000 mm 0,0 UV-I 0 W/m 16,3 C 19,7 C 0,0 km/h (0 Bft) 0,00 %
20.07.2015 23:40 19,6 C 82 % 1013,1 hPa 0,0 l/m 0,0 km/h (0 Bft) NO 46 0 min 0,000 mm 0,0 UV-I 0 W/m 16,4 C 19,6 C 0,0 km/h (0 Bft) 0,00 %
20.07.2015 23:45 19,5 C 82 % 1013,1 hPa 0,0 l/m 0,0 km/h (0 Bft) NO 45 0 min 0,000 mm 0,0 UV-I 0 W/m 16,3 C 19,5 C 0,0 km/h (0 Bft) 0,00 %
20.07.2015 23:50 19,4 C 82 % 1013,2 hPa 0,0 l/m 0,0 km/h (0 Bft) NO 49 0 min 0,000 mm 0,0 UV-I 0 W/m 16,2 C 19,4 C 0,0 km/h (0 Bft) 0,00 %
20.07.2015 23:55 19,3 C 82 % 1013,0 hPa 0,0 l/m 0,0 km/h (0 Bft) NO 45 0 min 0,000 mm 0,0 UV-I 0 W/m 16,1 C 19,3 C 0,0 km/h (0 Bft) 0,00 %
_ Min-Zeit 03:40 18:05 18:50 - 00:00 - - - - - - 18:05 03:40 00:00 00:00
Minimum _ 17,9 C 35 % 1009,7 hPa - 0,0 km/h (0 Bft) - - - - - - 13,5 C 17,9 C 0,0 km/h (0 Bft) 0,00 %
_ Max-Zeit 17:55 04:00 09:05 01:30 11:20 - - 08:40 00:00 13:10 14:35 09:55 17:55 11:20 00:00
Maximum _ 30,9 C 97 % 1013,9 hPa 1,2 l/m 7,9 km/h
W (2 Bft)
- - 5 min 0,000 mm 6,0 UV-I 1142 W/m 18,2 C 30,9 C 11,9 km/h
W (2 Bft)
0,00 %
Durchschnitt _ 23,7 C 67 % 1012,1 hPa #3,0 l/m 0,6 km/h (0 Bft) N-NW - #8:20 h #0,000 mm 2,5 UV-I 504 W/m 16,3 C 23,7 C 1,5 km/h (1 Bft) 0,00 %